Portada
METAR-TAF:

METAR-TAF

Aeropuertos :

Aeropuerto de San Galo-Altenrhein

San Galo, Suiza

latitud: 47-29-06N, longitud: 009-33-43E, altitud: 398 m

Observación

El informe se hizo hace 35 minutos, a las 20:50 UTC
Viento 1 kt con dirección variable
Temperatura 3°C
Humedad 100%
Presión 1027 hPa
Visibilidad: 7000 m

METAR: LSZR 032050Z AUTO VRB01KT 7000 NSC 03/03 Q1027

Hora: 22:25 (21:25 UTC)

Pronóstico

El informe se hizo hace 7 horas y 0 minutos, a las 14:25 UTC
Pronóstico válido del 03 a las 15 UTC al 03 a las 24 UTC
Viento 4 kt del oeste
Visibilidad 10 km o más
sin nubes por debajo de 1500 m y sin presencia de cumulonimbus.

TAF: LSZR 031425Z 0315/0324 28004KT CAVOK

Observaciones y pronósticos meteorológicos de más de 4000 aeropuertos (mensajes METAR y TAF).

Los puntos amarillos y rojos representan las estaciones disponibles.

Ponga el ratón en el punto deseado para ver el nombre de la estación.

Haga clic para ver las observaciones y los pronósticos meteorológicos.

Para cambiar el mapa : haga clic en los botones verdes con una cruz de color negro para hacer un zoom, en el botón verde con un guión para alejar o en las flechas verdes para mapas adyacentes.


METAR-TAF: